createdAt,value
2018-05-27T00:00:51.616Z,22.42
2018-05-27T00:01:51.628Z,22.30
2018-05-27T00:02:51.465Z,22.39
2018-05-27T00:03:51.487Z,22.38
2018-05-27T00:04:51.313Z,22.31
2018-05-27T00:05:51.380Z,22.36
2018-05-27T00:06:51.152Z,22.39
2018-05-27T00:07:51.150Z,22.35
2018-05-27T00:08:51.010Z,22.44
2018-05-27T00:09:50.967Z,22.39
2018-05-27T00:10:50.866Z,22.41
2018-05-27T00:11:50.878Z,22.41
2018-05-27T00:12:50.709Z,22.39
2018-05-27T00:13:50.733Z,22.39
2018-05-27T00:14:50.551Z,22.33
2018-05-27T00:15:50.631Z,22.41
2018-05-27T00:16:50.416Z,22.39
2018-05-27T00:17:50.413Z,22.38
2018-05-27T00:18:50.250Z,22.38
2018-05-27T00:19:50.214Z,22.30
2018-05-27T00:20:50.117Z,22.35
2018-05-27T00:21:50.117Z,22.36
2018-05-27T00:22:49.947Z,22.31
2018-05-27T00:23:49.954Z,22.24
2018-05-27T00:24:49.796Z,22.17
2018-05-27T00:25:49.764Z,22.23
2018-05-27T00:26:49.645Z,22.21
2018-05-27T00:27:49.654Z,22.12
2018-05-27T00:28:49.524Z,22.09
2018-05-27T00:29:49.466Z,22.12
2018-05-27T00:30:49.355Z,22.17
2018-05-27T00:31:49.363Z,22.15
2018-05-27T00:32:49.180Z,22.19
2018-05-27T00:33:49.174Z,22.31
2018-05-27T00:34:49.035Z,22.27
2018-05-27T00:35:49.012Z,22.38
2018-05-27T00:36:48.882Z,22.33
2018-05-27T00:37:48.900Z,22.33
2018-05-27T00:38:48.725Z,22.33
2018-05-27T00:39:48.703Z,22.27
2018-05-27T00:40:48.573Z,22.31
2018-05-27T00:41:48.666Z,22.33
2018-05-27T00:42:48.430Z,22.29
2018-05-27T00:43:48.441Z,22.21
2018-05-27T00:44:48.272Z,22.19
2018-05-27T00:45:48.231Z,22.14
2018-05-27T00:46:48.172Z,22.02
2018-05-27T00:47:48.143Z,21.93
2018-05-27T00:48:47.977Z,21.86
2018-05-27T00:49:47.989Z,21.85
2018-05-27T00:50:47.820Z,21.79
2018-05-27T00:51:47.799Z,21.82
2018-05-27T00:52:47.663Z,21.79
2018-05-27T00:53:47.688Z,21.93
2018-05-27T00:54:47.515Z,21.90
2018-05-27T00:55:47.481Z,21.82
2018-05-27T00:56:47.389Z,21.71
2018-05-27T00:57:47.386Z,21.70
2018-05-27T00:58:47.252Z,21.64
2018-05-27T00:59:47.198Z,21.63
2018-05-27T01:00:47.070Z,21.61
2018-05-27T01:01:47.042Z,21.56
2018-05-27T01:02:46.916Z,21.51
2018-05-27T01:03:46.920Z,21.56
2018-05-27T01:04:46.758Z,21.53
2018-05-27T01:05:46.825Z,21.55
2018-05-27T01:06:46.676Z,21.55
2018-05-27T01:07:46.640Z,21.53
2018-05-27T01:08:46.459Z,21.56
2018-05-27T01:09:46.447Z,21.46
2018-05-27T01:10:46.283Z,21.56
2018-05-27T01:11:46.274Z,21.63
2018-05-27T01:12:46.155Z,21.58
2018-05-27T01:13:46.158Z,21.56
2018-05-27T01:14:45.983Z,21.59
2018-05-27T01:15:45.975Z,21.59
2018-05-27T01:16:45.841Z,21.63
2018-05-27T01:17:45.815Z,21.64
2018-05-27T01:18:45.686Z,21.71
2018-05-27T01:19:45.684Z,21.63
2018-05-27T01:20:45.520Z,21.61
2018-05-27T01:21:45.497Z,21.64
2018-05-27T01:22:45.406Z,21.63
2018-05-27T01:23:47.367Z,21.55
2018-05-27T01:24:45.236Z,21.55
2018-05-27T01:25:45.225Z,21.52
2018-05-27T01:26:45.075Z,21.56
2018-05-27T01:27:45.060Z,21.58
2018-05-27T01:28:44.906Z,21.51
2018-05-27T01:29:44.937Z,21.49
2018-05-27T01:30:44.765Z,21.43
2018-05-27T01:31:44.742Z,21.51
2018-05-27T01:32:44.630Z,21.53
2018-05-27T01:33:44.569Z,21.51
2018-05-27T01:34:44.447Z,21.49
2018-05-27T01:35:44.465Z,21.48
2018-05-27T01:36:44.299Z,21.42
2018-05-27T01:37:45.333Z,21.36
2018-05-27T01:38:44.138Z,21.42
2018-05-27T01:39:44.178Z,21.21
2018-05-27T01:40:44.005Z,21.28
2018-05-27T01:41:44.004Z,21.22
2018-05-27T01:42:43.847Z,21.13
2018-05-27T01:43:44.854Z,21.19
2018-05-27T01:44:43.680Z,21.18
2018-05-27T01:45:43.766Z,21.24
2018-05-27T01:46:43.527Z,21.16
2018-05-27T01:47:43.519Z,21.11
2018-05-27T01:48:43.418Z,21.12
2018-05-27T01:49:43.735Z,21.03
2018-05-27T01:50:43.237Z,21.21
2018-05-27T01:51:43.849Z,21.21
2018-05-27T01:52:43.072Z,21.18
2018-05-27T01:53:44.110Z,21.15
2018-05-27T01:54:42.924Z,21.13
2018-05-27T01:57:24.801Z,21.01
2018-05-27T01:58:24.746Z,20.96
2018-05-27T01:59:24.662Z,20.97
2018-05-27T02:00:33.673Z,20.93
2018-05-27T02:01:24.489Z,20.85
2018-05-27T02:02:24.495Z,20.78
2018-05-27T02:03:24.339Z,20.63
2018-05-27T02:04:24.324Z,20.68
2018-05-27T02:05:24.178Z,20.64
2018-05-27T02:06:24.186Z,20.57
2018-05-27T02:07:24.037Z,20.51
2018-05-27T02:08:23.999Z,20.58
2018-05-27T02:09:23.900Z,20.48
2018-05-27T02:10:23.905Z,20.37
2018-05-27T02:11:23.731Z,20.37
2018-05-27T02:14:05.810Z,20.26
2018-05-27T02:15:05.948Z,20.22
2018-05-27T02:16:05.667Z,20.20
2018-05-27T02:17:05.625Z,20.15
2018-05-27T02:19:30.352Z,20.13
2018-05-27T02:20:30.319Z,20.12
2018-05-27T02:21:30.149Z,20.16
2018-05-27T02:22:30.128Z,20.12
2018-05-27T02:42:27.845Z,20.35
2018-05-27T02:43:27.692Z,20.35
2018-05-27T02:44:27.718Z,20.26
2018-05-27T02:45:27.536Z,20.23
2018-05-27T02:46:27.528Z,20.22
2018-05-27T02:47:27.370Z,20.23
2018-05-27T02:48:27.333Z,20.22
2018-05-27T02:49:27.224Z,20.17
2018-05-27T02:50:27.279Z,20.12
2018-05-27T02:51:27.064Z,20.04
2018-05-27T02:54:09.334Z,19.98
2018-05-27T02:55:30.251Z,19.94
2018-05-27T02:56:09.165Z,19.90
2018-05-27T02:57:09.165Z,19.80
2018-05-27T02:58:08.996Z,19.82
2018-05-27T02:59:08.977Z,19.86
2018-05-27T03:00:08.853Z,19.83
2018-05-27T03:01:08.930Z,19.83
2018-05-27T03:02:08.697Z,19.76
2018-05-27T03:03:08.694Z,19.76
2018-05-27T03:04:08.539Z,19.82
2018-05-27T03:05:08.504Z,19.90
2018-05-27T03:06:08.425Z,19.90
2018-05-27T03:08:50.367Z,19.85
2018-05-27T03:09:50.515Z,19.71
2018-05-27T03:10:50.206Z,19.76
2018-05-27T03:13:32.315Z,19.64
2018-05-27T03:14:32.322Z,19.62
2018-05-27T03:15:32.161Z,19.55
2018-05-27T03:16:32.162Z,19.52
2018-05-27T03:17:32.009Z,19.61
2018-05-27T03:18:32.037Z,19.64
2018-05-27T03:19:31.868Z,19.65
2018-05-27T03:20:31.849Z,19.71
2018-05-27T03:21:31.870Z,19.80
2018-05-27T03:22:31.667Z,19.82
2018-05-27T03:23:31.546Z,19.70
2018-05-27T03:24:31.564Z,19.75
2018-05-27T03:25:31.397Z,19.62
2018-05-27T03:26:31.445Z,19.70
2018-05-27T03:37:12.342Z,19.71
2018-05-27T03:38:12.169Z,19.60
2018-05-27T03:39:12.213Z,19.72
2018-05-27T03:40:12.011Z,19.62
2018-05-27T03:42:53.851Z,19.70
2018-05-27T03:45:35.831Z,19.65
2018-05-27T03:46:35.813Z,19.70
2018-05-27T03:47:35.765Z,19.70
2018-05-27T03:48:35.744Z,19.71
2018-05-27T03:49:35.513Z,19.78
2018-05-27T03:50:35.531Z,19.85
2018-05-27T03:51:35.376Z,19.82
2018-05-27T03:52:35.372Z,19.90
2018-05-27T03:53:35.207Z,20.01
2018-05-27T03:55:53.408Z,20.10
2018-05-27T03:55:53.933Z,20.25
2018-05-27T03:56:53.896Z,20.26
2018-05-27T03:57:53.794Z,20.26
2018-05-27T03:58:53.762Z,20.26
2018-05-27T03:59:53.607Z,20.23
2018-05-27T04:00:53.625Z,20.25
2018-05-27T04:01:53.463Z,20.34
2018-05-27T04:02:53.783Z,20.33
2018-05-27T04:03:53.334Z,20.42
2018-05-27T04:04:53.859Z,20.41
2018-05-27T04:05:53.193Z,20.42
2018-05-27T04:08:35.358Z,20.44
2018-05-27T04:09:35.351Z,20.42
2018-05-27T04:10:35.186Z,20.54
2018-05-27T04:13:17.361Z,20.42
2018-05-27T04:15:59.340Z,20.42
2018-05-27T04:16:59.280Z,20.46
2018-05-27T04:17:59.183Z,20.75
2018-05-27T04:19:00.142Z,20.68
2018-05-27T04:19:59.036Z,20.68
2018-05-27T04:20:58.965Z,20.53
2018-05-27T04:21:58.890Z,20.61
2018-05-27T04:22:58.806Z,20.57
2018-05-27T04:23:58.756Z,20.61
2018-05-27T04:24:58.650Z,20.56
2018-05-27T04:25:58.571Z,20.58
2018-05-27T04:26:58.505Z,20.68
2018-05-27T04:27:58.421Z,20.66
2018-05-27T04:28:58.374Z,20.69
2018-05-27T04:29:58.269Z,20.66
2018-05-27T04:32:40.351Z,20.76
2018-05-27T04:33:40.357Z,20.88
2018-05-27T04:34:40.192Z,20.85
2018-05-27T04:35:40.124Z,20.96
2018-05-27T04:36:40.034Z,21.01
2018-05-27T04:37:39.967Z,21.03
2018-05-27T04:38:39.906Z,21.12
2018-05-27T04:39:39.816Z,21.19
2018-05-27T04:40:39.730Z,21.13
2018-05-27T04:43:21.844Z,21.19
2018-05-27T04:44:21.889Z,21.15
2018-05-27T04:45:21.689Z,21.24
2018-05-27T04:46:21.628Z,21.19
2018-05-27T04:47:21.572Z,21.19
2018-05-27T04:48:21.485Z,21.11
2018-05-27T04:49:21.388Z,21.05
2018-05-27T04:50:21.388Z,21.05
2018-05-27T04:51:21.242Z,20.96
2018-05-27T04:52:21.229Z,20.87
2018-05-27T04:53:21.104Z,20.87
2018-05-27T04:54:21.106Z,20.78
2018-05-27T04:55:20.925Z,20.78
2018-05-27T04:56:20.849Z,20.81
2018-05-27T04:57:20.777Z,20.83
2018-05-27T04:58:20.747Z,20.81
2018-05-27T04:59:20.634Z,20.90
2018-05-27T05:02:02.852Z,20.98
2018-05-27T05:03:02.846Z,20.93
2018-05-27T05:04:02.715Z,20.97
2018-05-27T05:05:02.673Z,20.98
2018-05-27T05:06:02.544Z,20.97
2018-05-27T05:08:44.850Z,21.16
2018-05-27T05:09:44.901Z,21.24
2018-05-27T05:10:44.726Z,21.26
2018-05-27T05:11:44.668Z,21.38
2018-05-27T05:12:44.557Z,21.42
2018-05-27T05:37:06.371Z,22.59
2018-05-27T05:39:48.371Z,22.54
2018-05-27T05:40:48.343Z,22.63
2018-05-27T05:41:48.512Z,22.75
2018-05-27T05:42:48.242Z,22.66
2018-05-27T05:43:48.061Z,22.76
2018-05-27T05:46:30.398Z,22.75
2018-05-27T05:47:30.371Z,22.69
2018-05-27T05:48:30.213Z,22.78
2018-05-27T05:49:30.273Z,22.84
2018-05-27T05:50:30.065Z,22.72
2018-05-27T05:51:30.108Z,22.82
2018-05-27T05:52:29.915Z,22.88
2018-05-27T05:53:29.901Z,22.94
2018-05-27T05:54:29.777Z,22.84
2018-05-27T05:57:11.898Z,22.67
2018-05-27T05:58:11.910Z,22.69
2018-05-27T05:59:11.726Z,22.66
2018-05-27T06:00:11.717Z,22.76
2018-05-27T06:01:11.623Z,22.94
2018-05-27T06:02:11.558Z,23.04
2018-05-27T06:14:52.095Z,23.97
2018-05-27T06:15:51.882Z,24.14
2018-05-27T06:16:51.851Z,24.23
2018-05-27T06:17:51.780Z,24.23
2018-05-27T06:18:51.777Z,24.36
2018-05-27T06:19:51.581Z,24.33
2018-05-27T06:20:51.575Z,24.55
2018-05-27T06:21:51.444Z,24.42
2018-05-27T06:22:51.384Z,24.44
2018-05-27T06:23:51.274Z,24.36
2018-05-27T06:24:51.287Z,24.39
2018-05-27T06:25:51.139Z,24.82
2018-05-27T06:26:51.097Z,25.01
2018-05-27T06:27:51.001Z,25.14
2018-05-27T06:28:51.010Z,25.30
2018-05-27T06:29:50.825Z,25.46
2018-05-27T06:30:50.814Z,25.97
2018-05-27T06:31:50.687Z,26.57
2018-05-27T06:32:51.681Z,26.79
2018-05-27T06:33:51.411Z,26.90
2018-05-27T06:34:50.535Z,27.02
2018-05-27T06:35:50.389Z,26.86
2018-05-27T06:36:50.355Z,26.68
2018-05-27T06:37:50.284Z,26.24
2018-05-27T06:38:50.253Z,26.23
2018-05-27T06:39:50.090Z,26.19
2018-05-27T06:42:32.410Z,27.38
2018-05-27T06:43:32.377Z,27.83
2018-05-27T06:44:32.241Z,28.43
2018-05-27T06:45:32.279Z,28.98
2018-05-27T06:46:32.096Z,29.35
2018-05-27T06:48:56.891Z,29.45
2018-05-27T06:49:56.881Z,29.27
2018-05-27T06:50:56.755Z,29.73
2018-05-27T06:51:56.810Z,29.91
2018-05-27T06:52:57.044Z,30.00
2018-05-27T06:53:56.604Z,30.13
2018-05-27T06:54:56.464Z,30.19
2018-05-27T06:55:56.513Z,30.29
2018-05-27T07:10:53.788Z,31.23
2018-05-27T07:11:53.757Z,31.28
2018-05-27T07:12:53.600Z,31.62
2018-05-27T07:13:53.700Z,31.42
2018-05-27T07:14:53.470Z,31.76
2018-05-27T07:15:53.485Z,31.67
2018-05-27T07:16:53.339Z,31.64
2018-05-27T07:17:53.378Z,31.79
2018-05-27T07:18:53.202Z,31.64
2018-05-27T07:19:53.238Z,31.54
2018-05-27T07:20:53.067Z,31.35
2018-05-27T07:21:53.105Z,31.54
2018-05-27T07:22:52.931Z,31.40
2018-05-27T07:23:52.960Z,31.28
2018-05-27T07:24:52.816Z,31.40
2018-05-27T07:25:52.819Z,30.93
2018-05-27T07:26:52.665Z,30.82
2018-05-27T07:27:52.606Z,30.94
2018-05-27T07:28:52.563Z,31.09
2018-05-27T07:29:52.591Z,30.59
2018-05-27T07:30:52.391Z,30.56
2018-05-27T07:31:52.454Z,30.60
2018-05-27T07:32:52.265Z,30.75
2018-05-27T07:35:34.527Z,31.60
2018-05-27T07:36:34.461Z,31.25
2018-05-27T07:37:34.285Z,31.07
2018-05-27T07:40:16.437Z,32.59
2018-05-27T07:41:16.469Z,32.39
2018-05-27T07:42:16.279Z,32.72
2018-05-27T07:43:16.435Z,32.83
2018-05-27T07:44:16.168Z,33.44
2018-05-27T07:45:17.294Z,32.72
2018-05-27T07:46:16.009Z,32.46
2018-05-27T07:47:15.998Z,31.67
2018-05-27T07:48:15.888Z,32.14
2018-05-27T07:49:15.916Z,32.47
2018-05-27T07:50:15.771Z,32.47
2018-05-27T07:52:57.920Z,32.35
2018-05-27T07:53:57.994Z,32.91
2018-05-27T07:54:57.805Z,32.59
2018-05-27T07:55:57.875Z,32.93
2018-05-27T07:56:57.661Z,32.91
2018-05-27T07:59:39.911Z,33.43
2018-05-27T08:00:39.973Z,33.53
2018-05-27T08:01:39.780Z,33.18
2018-05-27T08:02:39.759Z,32.03
2018-05-27T08:03:39.722Z,31.41
2018-05-27T08:06:21.945Z,31.28
2018-05-27T08:07:21.867Z,31.69
2018-05-27T08:08:21.785Z,31.42
2018-05-27T08:09:21.994Z,31.67
2018-05-27T08:10:21.694Z,32.59
2018-05-27T08:11:21.695Z,32.72
2018-05-27T08:12:21.539Z,32.93
2018-05-27T08:14:45.922Z,33.20
2018-05-27T08:15:46.951Z,33.68
2018-05-27T08:16:45.813Z,33.86
2018-05-27T08:17:45.800Z,33.75
2018-05-27T08:18:45.662Z,33.77
2018-05-27T08:19:45.761Z,33.72
2018-05-27T08:20:45.569Z,33.74
2018-05-27T08:21:45.518Z,33.93
2018-05-27T08:22:45.411Z,34.15
2018-05-27T08:23:45.432Z,34.18
2018-05-27T08:24:45.298Z,33.87
2018-05-27T08:25:45.346Z,33.18
2018-05-27T08:26:45.178Z,32.61
2018-05-27T08:27:45.152Z,32.68
2018-05-27T08:28:45.011Z,32.76
2018-05-27T08:29:45.062Z,31.99
2018-05-27T08:30:44.939Z,31.99
2018-05-27T08:31:44.911Z,32.25
2018-05-27T08:32:44.767Z,32.43
2018-05-27T08:33:44.775Z,33.06
2018-05-27T08:34:44.653Z,33.37
2018-05-27T08:35:44.690Z,33.60
2018-05-27T08:36:44.577Z,33.24
2018-05-27T08:39:37.967Z,34.06
2018-05-27T08:40:37.968Z,32.47
2018-05-27T08:41:37.835Z,31.84
2018-05-27T08:42:37.787Z,31.85
2018-05-27T08:43:37.677Z,31.98
2018-05-27T08:44:37.686Z,31.99
2018-05-27T08:45:37.542Z,31.97
2018-05-27T08:46:37.656Z,32.09
2018-05-27T08:47:37.424Z,32.77
2018-05-27T08:48:37.404Z,33.53
2018-05-27T08:49:37.314Z,33.87
2018-05-27T08:50:37.302Z,33.92
2018-05-27T08:51:37.190Z,34.23
2018-05-27T08:52:37.237Z,33.12
2018-05-27T08:53:37.056Z,32.87
2018-05-27T08:54:37.047Z,32.78
2018-05-27T08:55:36.920Z,32.44
2018-05-27T08:56:36.938Z,32.02
2018-05-27T08:57:37.121Z,31.88
2018-05-27T08:58:36.790Z,31.46
2018-05-27T08:59:36.657Z,31.30
2018-05-27T09:00:36.663Z,31.05
2018-05-27T09:01:36.520Z,31.12
2018-05-27T09:02:36.505Z,30.54
2018-05-27T09:03:36.433Z,30.48
2018-05-27T09:04:36.380Z,30.46
2018-05-27T09:05:36.265Z,30.22
2018-05-27T09:06:36.284Z,30.57
2018-05-27T09:07:36.150Z,30.94
2018-05-27T09:08:36.117Z,30.48
2018-05-27T09:09:35.992Z,30.70
2018-05-27T09:10:36.006Z,31.41
2018-05-27T09:11:35.864Z,31.25
2018-05-27T09:12:35.850Z,31.13
2018-05-27T09:13:35.734Z,30.94
2018-05-27T09:14:35.715Z,31.16
2018-05-27T09:15:35.589Z,31.41
2018-05-27T09:16:35.631Z,31.52
2018-05-27T09:17:35.495Z,31.87
2018-05-27T09:18:35.433Z,31.84
2018-05-27T09:19:35.328Z,32.02
2018-05-27T09:20:35.368Z,32.46
2018-05-27T09:21:35.199Z,32.76
2018-05-27T09:22:35.194Z,33.24
2018-05-27T09:23:35.064Z,33.37
2018-05-27T09:24:35.072Z,31.90
2018-05-27T09:25:34.929Z,30.73
2018-05-27T09:26:35.007Z,30.49
2018-05-27T09:27:34.822Z,31.15
2018-05-27T09:28:34.827Z,31.88
2018-05-27T09:29:34.697Z,32.43
2018-05-27T09:30:34.701Z,32.68
2018-05-27T09:31:34.551Z,33.49
2018-05-27T09:32:34.558Z,33.82
2018-05-27T09:33:37.596Z,33.90
2018-05-27T09:34:34.421Z,34.49
2018-05-27T09:35:34.285Z,34.99
2018-05-27T09:36:34.329Z,35.15
2018-05-27T09:37:34.157Z,35.76
2018-05-27T09:38:34.175Z,35.65
2018-05-27T09:39:34.049Z,35.49
2018-05-27T09:40:34.052Z,35.59
2018-05-27T09:41:33.898Z,35.64
2018-05-27T09:42:33.866Z,35.62
2018-05-27T09:43:33.798Z,35.39
2018-05-27T09:44:33.823Z,35.54
2018-05-27T09:45:33.708Z,35.12
2018-05-27T09:46:33.686Z,34.55
2018-05-27T09:47:33.525Z,34.95
2018-05-27T09:48:33.491Z,34.61
2018-05-27T09:49:33.409Z,34.53
2018-05-27T09:50:33.401Z,33.38
2018-05-27T09:51:33.277Z,32.71
2018-05-27T09:52:33.359Z,33.38
2018-05-27T09:53:33.146Z,33.68
2018-05-27T09:54:33.193Z,33.68
2018-05-27T09:55:33.052Z,33.56
2018-05-27T09:56:33.041Z,33.41
2018-05-27T09:57:32.896Z,33.55
2018-05-27T09:58:32.942Z,33.47
2018-05-27T09:59:32.805Z,33.79
2018-05-27T10:00:32.756Z,33.92
2018-05-27T10:01:32.681Z,33.94
2018-05-27T10:02:32.613Z,33.82
2018-05-27T10:03:32.530Z,34.81
2018-05-27T10:04:32.604Z,34.91
2018-05-27T10:05:32.396Z,34.83
2018-05-27T10:06:32.384Z,34.52
2018-05-27T10:07:32.276Z,34.67
2018-05-27T10:08:32.303Z,34.91
2018-05-27T10:09:32.240Z,35.00
2018-05-27T10:10:32.205Z,35.07
2018-05-27T10:11:32.024Z,34.64
2018-05-27T10:12:32.111Z,34.16
2018-05-27T10:13:31.904Z,33.89
2018-05-27T10:14:33.964Z,34.24
2018-05-27T10:15:31.770Z,33.96
2018-05-27T10:16:33.816Z,33.94
2018-05-27T10:17:31.659Z,33.87
2018-05-27T10:18:32.498Z,32.73
2018-05-27T10:19:31.605Z,32.95
2018-05-27T10:20:31.558Z,33.38
2018-05-27T10:21:31.489Z,33.44
2018-05-27T10:24:13.468Z,34.15
2018-05-27T10:25:13.488Z,34.31
2018-05-27T10:26:13.356Z,34.34
2018-05-27T10:27:13.368Z,33.92
2018-05-27T10:28:13.370Z,34.52
2018-05-27T10:29:13.602Z,34.45
2018-05-27T10:30:13.372Z,33.70
2018-05-27T10:33:07.626Z,32.96
2018-05-27T10:34:28.108Z,32.56
2018-05-27T10:35:07.247Z,33.18
2018-05-27T10:36:07.212Z,33.87
2018-05-27T10:37:07.435Z,33.84
2018-05-27T10:39:50.199Z,33.86
2018-05-27T10:41:13.489Z,34.81
2018-05-27T10:42:10.287Z,34.40
2018-05-27T10:43:10.083Z,34.36
2018-05-27T10:43:49.013Z,33.81
2018-05-27T10:44:50.706Z,33.14
2018-05-27T10:45:48.847Z,32.68
2018-05-27T10:46:49.242Z,31.78
2018-05-27T10:47:48.823Z,31.49
2018-05-27T11:08:11.021Z,30.38
2018-05-27T11:09:10.947Z,30.42
2018-05-27T11:10:10.944Z,30.86
2018-05-27T11:11:10.748Z,31.09
2018-05-27T11:12:10.742Z,30.78
2018-05-27T11:13:10.614Z,30.57
2018-05-27T11:14:10.623Z,30.36
2018-05-27T11:15:10.467Z,30.26
2018-05-27T11:16:10.412Z,29.99
2018-05-27T11:17:10.343Z,29.76
2018-05-27T11:18:10.345Z,29.49
2018-05-27T11:19:10.192Z,29.60
2018-05-27T11:20:10.232Z,29.42
2018-05-27T11:21:10.154Z,29.44
2018-05-27T11:22:10.061Z,29.47
2018-05-27T11:23:09.925Z,29.66
2018-05-27T11:24:09.968Z,29.95
2018-05-27T11:25:09.775Z,30.04
2018-05-27T11:26:09.763Z,29.88
2018-05-27T11:27:09.677Z,29.62
2018-05-27T11:28:09.675Z,29.41
2018-05-27T11:29:09.517Z,29.37
2018-05-27T11:30:09.486Z,29.17
2018-05-27T11:31:09.373Z,28.95
2018-05-27T11:32:09.435Z,28.98
2018-05-27T11:33:09.235Z,28.89
2018-05-27T11:34:09.270Z,28.87
2018-05-27T11:35:09.099Z,28.87
2018-05-27T11:36:09.192Z,28.91
2018-05-27T11:37:08.960Z,28.95
2018-05-27T11:39:51.012Z,28.83
2018-05-27T11:42:33.081Z,28.97
2018-05-27T11:43:34.003Z,28.97
2018-05-27T11:44:32.888Z,28.97
2018-05-27T11:45:32.832Z,29.20
2018-05-27T11:46:32.715Z,29.11
2018-05-27T11:49:15.033Z,29.42
2018-05-27T11:50:14.946Z,29.47
2018-05-27T11:51:14.864Z,29.62
2018-05-27T11:52:15.830Z,29.73
2018-05-27T11:53:14.720Z,29.81
2018-05-27T11:54:14.717Z,29.78
2018-05-27T11:55:14.596Z,29.67
2018-05-27T11:56:14.524Z,29.41
2018-05-27T11:57:14.442Z,29.36
2018-05-27T11:58:14.398Z,29.17
2018-05-27T11:59:14.332Z,29.08
2018-05-27T12:01:56.550Z,29.39
2018-05-27T12:02:56.438Z,29.42
2018-05-27T12:03:56.389Z,29.18
2018-05-27T12:04:56.372Z,29.17
2018-05-27T12:05:56.226Z,29.27
2018-05-27T12:06:56.170Z,29.14
2018-05-27T12:07:56.191Z,29.07
2018-05-27T12:08:56.030Z,29.02
2018-05-27T12:09:55.984Z,28.94
2018-05-27T12:10:55.915Z,28.79
2018-05-27T12:11:55.833Z,28.88
2018-05-27T12:12:55.765Z,28.92
2018-05-27T12:13:55.662Z,29.10
2018-05-27T12:14:56.647Z,29.00
2018-05-27T12:15:55.584Z,28.91
2018-05-27T12:16:57.456Z,28.92
2018-05-27T12:17:55.403Z,28.92
2018-05-27T12:18:55.324Z,29.03
2018-05-27T12:19:55.277Z,29.00
2018-05-27T12:20:55.181Z,29.14
2018-05-27T12:21:55.102Z,29.21
2018-05-27T12:22:55.053Z,29.12
2018-05-27T12:23:54.970Z,29.00
2018-05-27T12:24:54.926Z,29.02
2018-05-27T12:25:54.826Z,28.83
2018-05-27T12:26:54.775Z,28.83
2018-05-27T12:27:54.692Z,28.92
2018-05-27T12:30:36.533Z,29.14
2018-05-27T12:31:36.456Z,29.05
2018-05-27T12:32:36.384Z,28.97
2018-05-27T12:33:36.332Z,28.87
2018-05-27T12:34:36.239Z,28.79
2018-05-27T12:35:40.671Z,28.60
2018-05-27T12:36:36.096Z,28.55
2018-05-27T12:39:18.043Z,28.70
2018-05-27T12:40:17.958Z,28.83
2018-05-27T12:41:17.967Z,28.74
2018-05-27T12:42:17.864Z,28.61
2018-05-27T12:43:17.745Z,28.50
2018-05-27T12:44:17.675Z,28.42
2018-05-27T12:45:17.611Z,28.32
2018-05-27T12:46:18.544Z,28.25
2018-05-27T12:47:17.464Z,28.27
2018-05-27T12:48:17.386Z,28.21
2018-05-27T12:49:17.326Z,28.14
2018-05-27T12:51:42.060Z,28.06
2018-05-27T12:52:42.085Z,28.05
2018-05-27T12:53:41.894Z,27.95
2018-05-27T12:54:43.816Z,27.96
2018-05-27T12:55:41.756Z,27.69
2018-05-27T12:56:41.728Z,27.69
2018-05-27T12:57:41.624Z,27.71
2018-05-27T13:00:23.533Z,27.45
2018-05-27T13:01:23.510Z,27.59
2018-05-27T13:02:23.409Z,27.61
2018-05-27T13:03:23.333Z,27.61
2018-05-27T13:04:23.257Z,27.66
2018-05-27T13:05:23.193Z,27.68
2018-05-27T13:06:23.109Z,27.68
2018-05-27T13:07:23.061Z,27.53
2018-05-27T13:08:22.959Z,27.61
2018-05-27T13:09:22.905Z,27.61
2018-05-27T13:10:22.818Z,27.53
2018-05-27T13:11:22.761Z,27.61
2018-05-27T13:12:22.929Z,27.66
2018-05-27T13:15:04.561Z,27.43
2018-05-27T13:17:46.563Z,27.46
2018-05-27T13:19:07.448Z,27.53
2018-05-27T13:19:46.405Z,27.62
2018-05-27T13:20:47.350Z,27.62
2018-05-27T13:22:07.242Z,27.66
2018-05-27T13:22:46.185Z,27.77
2018-05-27T13:23:46.127Z,27.80
2018-05-27T13:27:10.062Z,27.61
2018-05-27T13:28:09.983Z,27.61
2018-05-27T13:29:09.917Z,27.65
2018-05-27T13:30:09.833Z,27.42
2018-05-27T13:31:09.785Z,27.49
2018-05-27T13:33:55.178Z,27.84
2018-05-27T13:34:51.993Z,27.84
2018-05-27T13:35:51.903Z,27.88
2018-05-27T13:36:51.914Z,28.05
2018-05-27T13:37:51.757Z,28.20
2018-05-27T13:40:34.042Z,28.25
2018-05-27T13:41:33.999Z,28.30
2018-05-27T13:42:33.901Z,28.17
2018-05-27T13:43:33.860Z,28.03
2018-05-27T13:44:33.760Z,27.98
2018-05-27T14:08:55.738Z,28.67
2018-05-27T14:09:55.527Z,28.74
2018-05-27T14:10:55.495Z,28.64
2018-05-27T14:11:55.401Z,28.60
2018-05-27T14:12:55.410Z,28.54
2018-05-27T14:13:55.282Z,28.55
2018-05-27T14:16:37.585Z,28.45
2018-05-27T14:17:39.394Z,28.52
2018-05-27T14:18:37.476Z,28.51
2018-05-27T14:19:42.153Z,28.50
2018-05-27T14:20:37.278Z,28.69
2018-05-27T14:21:42.271Z,28.65
2018-05-27T14:22:40.228Z,28.67
2018-05-27T14:23:37.214Z,28.76
2018-05-27T14:24:37.030Z,28.64
2018-05-27T14:25:36.973Z,28.72
2018-05-27T14:26:36.910Z,28.64
2018-05-27T14:27:36.908Z,28.65
2018-05-27T14:28:36.725Z,28.50
2018-05-27T14:29:36.685Z,28.46
2018-05-27T14:30:36.608Z,28.50
2018-05-27T14:31:36.593Z,28.42
2018-05-27T14:32:36.463Z,28.43
2018-05-27T14:33:36.442Z,28.46
2018-05-27T14:34:36.330Z,28.35
2018-05-27T14:35:37.378Z,28.32
2018-05-27T14:36:36.188Z,28.24
2018-05-27T14:39:18.583Z,28.35
2018-05-27T14:42:00.585Z,28.48
2018-05-27T14:43:00.629Z,28.55
2018-05-27T14:44:00.477Z,28.50
2018-05-27T14:45:00.445Z,28.52
2018-05-27T14:46:00.299Z,28.58
2018-05-27T14:47:00.373Z,28.27
2018-05-27T14:48:00.169Z,28.23
2018-05-27T14:49:00.180Z,28.15
2018-05-27T14:50:00.023Z,27.99
2018-05-27T14:51:00.025Z,27.99
2018-05-27T14:51:59.872Z,27.87
2018-05-27T14:52:59.817Z,27.69
2018-05-27T14:53:59.747Z,27.68
2018-05-27T14:54:59.795Z,27.68
2018-05-27T14:55:59.619Z,27.31
2018-05-27T14:56:59.595Z,27.45
2018-05-27T14:57:59.500Z,27.46
2018-05-27T14:58:59.508Z,27.49
2018-05-27T14:59:59.333Z,27.50
2018-05-27T15:00:59.248Z,27.38
2018-05-27T15:01:59.161Z,27.27
2018-05-27T15:02:59.091Z,27.30
2018-05-27T15:03:59.041Z,27.33
2018-05-27T15:04:58.954Z,27.39
2018-05-27T15:05:58.873Z,27.23
2018-05-27T15:06:58.918Z,27.30
2018-05-27T15:07:58.736Z,27.25
2018-05-27T15:08:58.813Z,27.30
2018-05-27T15:09:58.584Z,27.12
2018-05-27T15:10:58.572Z,27.24
2018-05-27T15:11:58.481Z,27.13
2018-05-27T15:12:58.466Z,27.15
2018-05-27T15:13:58.309Z,27.21
2018-05-27T15:14:58.290Z,27.27
2018-05-27T15:15:58.216Z,27.21
2018-05-27T15:16:59.155Z,27.09
2018-05-27T15:17:58.019Z,27.01
2018-05-27T15:18:57.995Z,26.98
2018-05-27T15:19:57.930Z,27.12
2018-05-27T15:20:57.909Z,27.11
2018-05-27T15:21:57.770Z,26.98
2018-05-27T15:22:57.717Z,27.11
2018-05-27T15:23:57.590Z,26.98
2018-05-27T15:24:57.625Z,27.11
2018-05-27T15:25:57.454Z,27.09
2018-05-27T15:26:57.480Z,27.01
2018-05-27T15:27:57.298Z,27.16
2018-05-27T15:30:39.686Z,27.27
2018-05-27T15:31:39.569Z,27.38
2018-05-27T15:32:39.502Z,27.40
2018-05-27T15:33:39.456Z,27.34
2018-05-27T15:34:39.305Z,27.25
2018-05-27T15:35:39.263Z,27.12
2018-05-27T15:36:39.165Z,26.96
2018-05-27T15:37:39.112Z,27.02
2018-05-27T15:38:39.016Z,27.06
2018-05-27T15:39:38.956Z,27.01
2018-05-27T15:40:38.885Z,26.78
2018-05-27T15:41:38.812Z,26.96
2018-05-27T15:42:38.757Z,26.87
2018-05-27T15:43:38.690Z,26.86
2018-05-27T15:44:38.583Z,26.84
2018-05-27T15:45:38.523Z,26.97
2018-05-27T15:46:38.445Z,26.72
2018-05-27T15:47:38.375Z,26.65
2018-05-27T15:48:38.334Z,26.64
2018-05-27T15:51:20.617Z,26.66
2018-05-27T15:52:20.535Z,26.51
2018-05-27T15:53:20.503Z,26.56
2018-05-27T15:54:20.400Z,26.41
2018-05-27T15:55:20.307Z,26.49
2018-05-27T15:56:20.235Z,26.34
2018-05-27T15:57:20.161Z,26.29
2018-05-27T15:58:21.132Z,26.28
2018-05-27T15:59:20.029Z,26.24
2018-05-27T16:00:19.967Z,26.21
2018-05-27T16:01:19.904Z,26.27
2018-05-27T16:02:19.798Z,26.16
2018-05-27T16:03:19.883Z,26.13
2018-05-27T16:04:19.696Z,26.19
2018-05-27T16:05:19.584Z,26.20
2018-05-27T16:06:19.509Z,26.19
2018-05-27T16:07:19.459Z,26.11
2018-05-27T16:08:19.384Z,26.09
2018-05-27T16:09:19.328Z,26.12
2018-05-27T16:10:19.235Z,26.13
2018-05-27T16:11:19.151Z,26.08
2018-05-27T16:12:19.073Z,26.03
2018-05-27T16:13:18.998Z,25.93
2018-05-27T16:14:19.952Z,25.86